createdAt,value
2022-07-27T00:01:21.788Z,95.90
2022-07-27T00:03:49.839Z,95.90
2022-07-27T00:06:17.744Z,96.10
2022-07-27T00:08:45.643Z,96.20
2022-07-27T00:11:14.918Z,96.10
2022-07-27T00:13:42.772Z,96.10
2022-07-27T00:16:10.672Z,96.20
2022-07-27T00:18:39.037Z,96.30
2022-07-27T00:21:06.954Z,96.50
2022-07-27T00:23:35.117Z,96.50
2022-07-27T00:26:02.913Z,96.60
2022-07-27T00:28:32.189Z,96.70
2022-07-27T00:31:00.388Z,96.80
2022-07-27T00:33:28.765Z,96.80
2022-07-27T00:35:56.582Z,97.00
2022-07-27T00:38:25.126Z,97.10
2022-07-27T00:40:53.717Z,97.30
2022-07-27T00:43:21.646Z,97.70
2022-07-27T00:45:50.964Z,97.60
2022-07-27T00:48:18.837Z,97.70
2022-07-27T00:50:48.165Z,97.50
2022-07-27T00:53:16.822Z,97.50
2022-07-27T00:55:46.597Z,97.50
2022-07-27T00:58:14.670Z,97.50
2022-07-27T01:00:42.502Z,97.40
2022-07-27T01:03:12.094Z,97.40
2022-07-27T01:05:43.425Z,97.50
2022-07-27T01:08:13.934Z,97.50
2022-07-27T01:10:43.397Z,97.50
2022-07-27T01:13:12.950Z,97.60
2022-07-27T01:15:42.243Z,97.40
2022-07-27T01:18:13.976Z,97.00
2022-07-27T01:20:42.789Z,97.00
2022-07-27T01:23:12.089Z,96.80
2022-07-27T01:25:42.613Z,96.70
2022-07-27T01:28:10.472Z,96.80
2022-07-27T01:30:38.345Z,96.90
2022-07-27T01:33:07.581Z,97.00
2022-07-27T01:35:36.093Z,97.00
2022-07-27T01:38:04.382Z,97.10
2022-07-27T01:40:34.073Z,97.00
2022-07-27T01:43:01.884Z,97.20
2022-07-27T01:45:30.041Z,97.50
2022-07-27T01:47:57.936Z,97.50
2022-07-27T01:50:25.782Z,97.50
2022-07-27T01:52:53.612Z,97.30
2022-07-27T01:55:21.593Z,97.40
2022-07-27T01:57:50.813Z,97.40
2022-07-27T02:00:18.864Z,97.40
2022-07-27T02:02:46.675Z,97.50
2022-07-27T02:05:14.516Z,97.60
2022-07-27T02:07:42.842Z,97.60
2022-07-27T02:10:11.691Z,97.50
2022-07-27T02:12:38.667Z,97.60
2022-07-27T02:15:15.492Z,97.50
2022-07-27T02:17:43.997Z,97.50
2022-07-27T02:20:14.498Z,97.40
2022-07-27T02:22:42.493Z,97.10
2022-07-27T02:25:11.803Z,97.00
2022-07-27T02:27:39.714Z,97.20
2022-07-27T02:30:10.470Z,97.20
2022-07-27T02:32:38.325Z,97.30
2022-07-27T02:35:19.786Z,97.30
2022-07-27T02:37:48.811Z,97.40
2022-07-27T02:40:17.982Z,97.50
2022-07-27T02:42:46.217Z,97.70
2022-07-27T02:45:15.712Z,97.70
2022-07-27T02:47:44.326Z,97.60
2022-07-27T02:50:12.226Z,97.50
2022-07-27T02:52:40.718Z,97.50
2022-07-27T02:55:09.777Z,97.60
2022-07-27T02:57:40.777Z,97.50
2022-07-27T03:00:11.361Z,97.30
2022-07-27T03:02:40.679Z,97.20
2022-07-27T03:05:10.043Z,97.10
2022-07-27T03:07:38.212Z,97.10
2022-07-27T03:10:07.094Z,97.20
2022-07-27T03:12:35.111Z,97.30
2022-07-27T03:15:02.960Z,97.10
2022-07-27T03:17:30.757Z,97.10
2022-07-27T03:19:59.893Z,97.20
2022-07-27T03:22:30.813Z,97.40
2022-07-27T03:24:58.906Z,97.20
2022-07-27T03:27:26.946Z,97.10
2022-07-27T03:29:54.771Z,97.30
2022-07-27T03:32:22.583Z,97.00
2022-07-27T03:34:50.433Z,96.80
2022-07-27T03:37:20.059Z,96.70
2022-07-27T03:39:48.202Z,96.50
2022-07-27T03:42:16.055Z,96.80
2022-07-27T03:44:44.255Z,96.00
2022-07-27T03:47:12.054Z,95.80
2022-07-27T03:49:39.859Z,95.80
2022-07-27T03:52:07.866Z,95.90
2022-07-27T03:54:37.099Z,96.00
2022-07-27T03:57:05.030Z,95.90
2022-07-27T03:59:32.880Z,95.80
2022-07-27T04:02:00.740Z,95.60
2022-07-27T04:04:28.616Z,95.50
2022-07-27T04:06:56.440Z,95.50
2022-07-27T04:09:24.879Z,95.60
2022-07-27T04:11:56.192Z,95.40
2022-07-27T04:14:23.975Z,95.20
2022-07-27T04:16:51.937Z,95.10
2022-07-27T04:19:19.896Z,95.10
2022-07-27T04:21:47.713Z,94.80
2022-07-27T04:24:15.552Z,94.70
2022-07-27T04:26:43.372Z,94.80
2022-07-27T04:29:16.889Z,94.70
2022-07-27T04:31:47.993Z,94.60
2022-07-27T04:34:15.838Z,94.50
2022-07-27T04:36:43.751Z,94.40
2022-07-27T04:39:12.087Z,94.50
2022-07-27T04:41:40.191Z,94.60
2022-07-27T04:44:08.298Z,94.60
2022-07-27T04:46:37.548Z,94.40
2022-07-27T04:49:06.217Z,94.50
2022-07-27T04:51:35.341Z,94.50
2022-07-27T04:56:31.154Z,94.60
2022-07-27T04:58:59.106Z,94.60
2022-07-27T05:01:31.660Z,94.70
2022-07-27T05:04:05.181Z,94.60
2022-07-27T05:06:33.296Z,94.50
2022-07-27T05:09:01.108Z,94.60
2022-07-27T05:11:28.949Z,94.50
2022-07-27T05:13:56.764Z,94.50
2022-07-27T05:16:28.522Z,94.10
2022-07-27T05:18:57.097Z,93.70
2022-07-27T05:21:27.244Z,93.70
2022-07-27T05:23:55.607Z,93.60
2022-07-27T05:26:23.429Z,93.70
2022-07-27T05:28:51.239Z,93.70
2022-07-27T05:31:19.665Z,93.80
2022-07-27T05:33:49.820Z,93.80
2022-07-27T05:36:18.612Z,93.90
2022-07-27T05:38:47.739Z,93.90
2022-07-27T05:41:15.749Z,94.20
2022-07-27T05:43:43.702Z,94.20
2022-07-27T05:46:11.643Z,94.30
2022-07-27T05:48:39.542Z,94.40
2022-07-27T05:51:07.428Z,94.20
2022-07-27T05:53:36.014Z,94.20
2022-07-27T05:56:05.614Z,94.10
2022-07-27T05:58:33.441Z,93.80
2022-07-27T06:01:01.425Z,93.50
2022-07-27T06:03:29.505Z,93.40
2022-07-27T06:06:11.409Z,93.40
2022-07-27T06:08:39.197Z,93.40
2022-07-27T06:11:08.366Z,93.00
2022-07-27T06:13:37.124Z,92.50
2022-07-27T06:16:09.915Z,92.80
2022-07-27T06:18:38.109Z,92.60
2022-07-27T06:21:06.445Z,92.60
2022-07-27T06:23:34.339Z,92.80
2022-07-27T06:26:02.149Z,92.90
2022-07-27T06:28:31.438Z,92.90
2022-07-27T06:30:59.594Z,92.70
2022-07-27T06:33:29.350Z,93.00
2022-07-27T06:35:59.045Z,93.10
2022-07-27T06:38:27.860Z,93.60
2022-07-27T06:40:56.895Z,93.70
2022-07-27T06:43:26.606Z,93.70
2022-07-27T06:45:56.128Z,93.60
2022-07-27T06:48:23.950Z,93.50
2022-07-27T06:50:52.823Z,93.40
2022-07-27T06:53:21.695Z,93.90
2022-07-27T06:55:49.715Z,93.90
2022-07-27T06:58:18.138Z,94.00
2022-07-27T07:00:47.478Z,93.80
2022-07-27T07:03:17.263Z,93.90
2022-07-27T07:05:46.721Z,93.90
2022-07-27T07:08:15.559Z,93.40
2022-07-27T07:10:45.190Z,93.70
2022-07-27T07:13:13.639Z,94.20
2022-07-27T07:15:42.488Z,94.10
2022-07-27T07:18:11.259Z,94.00
2022-07-27T07:20:41.113Z,93.90
2022-07-27T07:23:09.520Z,93.70
2022-07-27T07:25:38.480Z,93.60
2022-07-27T07:28:07.231Z,93.40
2022-07-27T07:30:35.305Z,94.00
2022-07-27T07:33:04.094Z,94.20
2022-07-27T07:35:31.924Z,93.10
2022-07-27T07:38:01.070Z,92.90
2022-07-27T07:40:45.071Z,93.10
2022-07-27T07:43:14.296Z,93.00
2022-07-27T07:45:50.711Z,92.90
2022-07-27T07:48:20.590Z,93.20
2022-07-27T07:50:52.048Z,93.30
2022-07-27T07:53:23.212Z,92.90
2022-07-27T07:55:51.865Z,92.30
2022-07-27T07:58:19.981Z,92.30
2022-07-27T08:00:48.131Z,92.50
2022-07-27T08:03:16.231Z,92.60
2022-07-27T08:05:44.477Z,92.40
2022-07-27T08:08:12.592Z,92.50
2022-07-27T08:10:41.965Z,92.40
2022-07-27T08:13:09.777Z,91.80
2022-07-27T08:15:37.644Z,91.60
2022-07-27T08:18:06.648Z,90.90
2022-07-27T08:20:35.341Z,91.40
2022-07-27T08:23:04.959Z,91.10
2022-07-27T08:25:33.438Z,91.00
2022-07-27T08:28:02.995Z,91.40
2022-07-27T08:30:32.253Z,91.50
2022-07-27T08:33:03.184Z,91.70
2022-07-27T08:35:32.707Z,90.90
2022-07-27T08:38:01.857Z,91.20
2022-07-27T08:40:40.382Z,91.60
2022-07-27T08:43:11.358Z,92.00
2022-07-27T08:45:41.360Z,91.70
2022-07-27T08:48:14.053Z,91.80
2022-07-27T08:50:43.155Z,91.60
2022-07-27T08:53:13.961Z,91.70
2022-07-27T08:55:43.592Z,92.20
2022-07-27T08:58:14.215Z,90.90
2022-07-27T09:00:44.070Z,90.60
2022-07-27T09:03:18.440Z,90.10
2022-07-27T09:05:48.716Z,89.10
2022-07-27T09:08:18.387Z,89.00
2022-07-27T09:10:46.260Z,89.40
2022-07-27T09:13:24.446Z,89.10
2022-07-27T09:18:42.298Z,88.60
2022-07-27T09:21:18.543Z,88.40
2022-07-27T09:23:48.521Z,88.20
2022-07-27T09:26:31.760Z,88.30
2022-07-27T09:29:05.415Z,88.40
2022-07-27T09:31:34.182Z,88.90
2022-07-27T09:34:03.722Z,88.90
2022-07-27T09:36:31.936Z,88.80
2022-07-27T09:39:03.786Z,88.50
2022-07-27T09:41:43.042Z,87.90
2022-07-27T09:44:31.777Z,87.50
2022-07-27T09:47:01.051Z,87.30
2022-07-27T09:49:34.303Z,87.60
2022-07-27T09:52:04.343Z,87.20
2022-07-27T09:54:50.511Z,87.70
2022-07-27T09:57:19.317Z,88.60
2022-07-27T09:59:48.520Z,88.90
2022-07-27T10:02:16.703Z,88.60
2022-07-27T10:04:45.024Z,88.30
2022-07-27T10:07:14.250Z,87.90
2022-07-27T10:09:43.183Z,87.60
2022-07-27T10:12:11.363Z,87.60
2022-07-27T10:14:39.142Z,87.00
2022-07-27T10:17:10.831Z,86.60
2022-07-27T10:19:46.268Z,86.10
2022-07-27T10:22:14.450Z,85.80
2022-07-27T10:24:42.444Z,85.70
2022-07-27T10:27:21.020Z,84.60
2022-07-27T10:29:50.545Z,83.60
2022-07-27T10:32:26.413Z,82.70
2022-07-27T10:34:54.419Z,82.80
2022-07-27T10:37:27.363Z,82.40
2022-07-27T10:40:11.330Z,81.00
2022-07-27T10:42:39.630Z,80.60
2022-07-27T10:45:10.569Z,80.80
2022-07-27T10:47:42.260Z,80.90
2022-07-27T10:50:33.064Z,81.60
2022-07-27T10:53:03.963Z,80.10
2022-07-27T10:55:49.277Z,80.70
2022-07-27T10:58:50.118Z,81.40
2022-07-27T11:01:19.836Z,82.20
2022-07-27T11:03:53.610Z,82.70
2022-07-27T11:06:48.162Z,83.10
2022-07-27T11:12:04.404Z,82.80
2022-07-27T11:14:32.254Z,82.60
2022-07-27T11:17:24.452Z,82.80
2022-07-27T11:19:58.191Z,82.90
2022-07-27T11:22:58.919Z,82.50
2022-07-27T11:25:23.283Z,82.50
2022-07-27T11:27:52.355Z,82.30
2022-07-27T11:30:25.185Z,81.10
2022-07-27T11:32:54.596Z,80.90
2022-07-27T11:35:24.073Z,81.00
2022-07-27T11:38:00.247Z,80.70
2022-07-27T11:43:33.850Z,81.50
2022-07-27T11:46:13.011Z,81.80
2022-07-27T11:51:39.920Z,82.20
2022-07-27T11:54:09.070Z,82.10
2022-07-27T11:56:39.396Z,82.50
2022-07-27T11:59:10.394Z,82.70
2022-07-27T12:01:40.580Z,82.10
2022-07-27T12:04:12.856Z,81.70
2022-07-27T12:06:43.278Z,81.70
2022-07-27T12:09:14.246Z,81.20
2022-07-27T12:11:51.874Z,81.80
2022-07-27T12:14:19.994Z,81.70
2022-07-27T12:16:47.862Z,82.10
2022-07-27T12:19:23.817Z,81.20
2022-07-27T12:21:55.846Z,81.20
2022-07-27T12:24:34.642Z,81.90
2022-07-27T12:27:06.568Z,81.90
2022-07-27T12:29:35.055Z,80.80
2022-07-27T12:32:04.987Z,80.20
2022-07-27T12:34:37.017Z,79.70
2022-07-27T12:37:14.078Z,79.30
2022-07-27T12:39:44.479Z,79.20
2022-07-27T12:42:13.076Z,80.00
2022-07-27T12:44:43.647Z,79.70
2022-07-27T12:47:29.419Z,79.40
2022-07-27T12:50:10.452Z,79.90
2022-07-27T12:52:42.863Z,79.60
2022-07-27T12:55:15.645Z,79.60
2022-07-27T12:57:55.596Z,79.70
2022-07-27T13:00:31.042Z,79.60
2022-07-27T13:03:01.312Z,79.20
2022-07-27T13:05:29.308Z,79.00
2022-07-27T13:07:59.066Z,79.60
2022-07-27T13:10:28.218Z,79.40
2022-07-27T13:12:56.169Z,79.40
2022-07-27T13:15:24.054Z,79.70
2022-07-27T13:17:51.920Z,80.80
2022-07-27T13:20:20.165Z,80.30
2022-07-27T13:22:48.198Z,79.70
2022-07-27T13:25:17.987Z,77.80
2022-07-27T13:27:46.974Z,77.90
2022-07-27T13:30:16.162Z,78.10
2022-07-27T13:32:44.847Z,78.10
2022-07-27T13:35:13.276Z,78.90
2022-07-27T13:37:41.705Z,78.10
2022-07-27T13:40:10.778Z,78.90
2022-07-27T13:42:40.083Z,77.30
2022-07-27T13:45:10.794Z,77.00
2022-07-27T13:47:39.089Z,77.20
2022-07-27T13:50:15.201Z,77.40
2022-07-27T13:52:46.410Z,78.00
2022-07-27T13:55:15.235Z,78.60
2022-07-27T13:57:45.541Z,79.30
2022-07-27T14:00:14.673Z,79.90
2022-07-27T14:02:42.870Z,79.20
2022-07-27T14:05:13.127Z,79.20
2022-07-27T14:07:42.804Z,78.40
2022-07-27T14:10:28.846Z,79.10
2022-07-27T14:13:07.467Z,78.80
2022-07-27T14:15:53.727Z,78.80
2022-07-27T14:18:26.737Z,78.50
2022-07-27T14:20:55.718Z,78.30
2022-07-27T14:23:24.999Z,78.20
2022-07-27T14:25:53.342Z,77.30
2022-07-27T14:28:24.062Z,76.70
2022-07-27T14:30:52.453Z,75.10
2022-07-27T14:33:20.624Z,72.70
2022-07-27T14:35:49.158Z,73.50
2022-07-27T14:38:27.775Z,74.30
2022-07-27T14:40:59.274Z,75.00
2022-07-27T14:43:28.909Z,75.30
2022-07-27T14:45:58.319Z,76.40
2022-07-27T14:48:42.600Z,76.80
2022-07-27T14:51:13.955Z,76.00
2022-07-27T14:53:41.843Z,74.90
2022-07-27T14:56:09.719Z,74.40
2022-07-27T14:58:38.880Z,74.70
2022-07-27T15:01:06.843Z,74.40
2022-07-27T15:03:34.818Z,74.80
2022-07-27T15:06:02.862Z,75.30
2022-07-27T15:08:30.711Z,75.80
2022-07-27T15:10:58.726Z,75.50
2022-07-27T15:13:26.682Z,75.90
2022-07-27T15:15:57.949Z,75.80
2022-07-27T15:18:26.119Z,76.50
2022-07-27T15:20:54.046Z,77.10
2022-07-27T15:23:22.289Z,77.20
2022-07-27T15:25:50.297Z,76.50
2022-07-27T15:28:18.130Z,77.50
2022-07-27T15:30:45.983Z,77.90
2022-07-27T15:33:15.146Z,77.40
2022-07-27T15:35:42.992Z,78.00
2022-07-27T15:38:10.805Z,79.30
2022-07-27T15:40:38.883Z,80.00
2022-07-27T15:43:10.612Z,79.70
2022-07-27T15:45:39.343Z,79.60
2022-07-27T15:48:08.415Z,78.80
2022-07-27T15:50:38.130Z,77.30
2022-07-27T15:53:06.810Z,77.20
2022-07-27T15:55:35.270Z,77.40
2022-07-27T15:58:03.306Z,77.30
2022-07-27T16:00:36.902Z,77.50
2022-07-27T16:03:07.299Z,77.80
2022-07-27T16:05:36.782Z,77.70
2022-07-27T16:08:04.901Z,77.40
2022-07-27T16:10:32.774Z,76.80
2022-07-27T16:13:01.307Z,76.00
2022-07-27T16:15:43.887Z,75.80
2022-07-27T16:18:12.075Z,75.80
2022-07-27T16:20:41.299Z,76.00
2022-07-27T16:23:18.518Z,75.20
2022-07-27T16:26:07.510Z,75.50
2022-07-27T16:28:39.473Z,75.20
2022-07-27T16:31:11.501Z,75.60
2022-07-27T16:33:39.526Z,75.80
2022-07-27T16:36:09.099Z,76.20
2022-07-27T16:38:37.821Z,75.90
2022-07-27T16:41:09.399Z,75.90
2022-07-27T16:43:38.565Z,75.50
2022-07-27T16:46:09.977Z,76.00
2022-07-27T16:48:42.405Z,76.20
2022-07-27T16:51:13.383Z,76.80
2022-07-27T16:53:42.365Z,77.00
2022-07-27T16:56:10.677Z,76.90
2022-07-27T16:58:39.429Z,76.90
2022-07-27T17:01:07.478Z,77.00
2022-07-27T17:03:35.329Z,77.60
2022-07-27T17:06:06.625Z,75.90
2022-07-27T17:08:36.686Z,75.10
2022-07-27T17:11:06.427Z,75.50
2022-07-27T17:13:35.750Z,75.90
2022-07-27T17:16:05.517Z,74.60
2022-07-27T17:18:39.587Z,74.60
2022-07-27T17:21:09.374Z,74.40
2022-07-27T17:23:39.830Z,74.00
2022-07-27T17:26:08.929Z,73.90
2022-07-27T17:28:39.536Z,74.30
2022-07-27T17:31:10.152Z,75.10
2022-07-27T17:33:38.338Z,75.60
2022-07-27T17:36:12.331Z,75.80
2022-07-27T17:38:43.983Z,75.40
2022-07-27T17:41:12.522Z,75.10
2022-07-27T17:43:40.578Z,75.20
2022-07-27T17:46:10.494Z,75.50
2022-07-27T17:48:39.070Z,76.10
2022-07-27T17:51:08.605Z,76.30
2022-07-27T17:53:39.509Z,75.90
2022-07-27T17:56:09.124Z,75.60
2022-07-27T17:58:38.057Z,75.70
2022-07-27T18:01:07.162Z,76.30
2022-07-27T18:03:35.705Z,77.20
2022-07-27T18:06:04.050Z,77.80
2022-07-27T18:08:32.093Z,77.70
2022-07-27T18:11:00.481Z,77.20
2022-07-27T18:13:38.806Z,76.70
2022-07-27T18:16:09.026Z,76.90
2022-07-27T18:18:37.354Z,77.40
2022-07-27T18:21:06.070Z,77.50
2022-07-27T18:23:34.590Z,77.70
2022-07-27T18:26:02.878Z,78.10
2022-07-27T18:28:39.000Z,78.30
2022-07-27T18:31:07.748Z,78.40
2022-07-27T18:33:37.023Z,78.70
2022-07-27T18:36:06.387Z,78.60
2022-07-27T18:38:34.661Z,78.20
2022-07-27T18:41:02.982Z,78.70
2022-07-27T18:43:35.357Z,78.20
2022-07-27T18:46:03.345Z,78.40
2022-07-27T18:48:31.830Z,78.40
2022-07-27T18:50:59.791Z,78.70
2022-07-27T18:53:27.786Z,78.80
2022-07-27T18:56:01.851Z,78.70
2022-07-27T18:58:29.736Z,78.40
2022-07-27T19:00:59.708Z,78.40
2022-07-27T19:03:28.067Z,78.40
2022-07-27T19:05:56.325Z,79.30
2022-07-27T19:08:24.489Z,79.70
2022-07-27T19:10:52.568Z,80.60
2022-07-27T19:13:21.160Z,80.50
2022-07-27T19:15:49.200Z,80.80
2022-07-27T19:18:18.564Z,81.10
2022-07-27T19:20:46.825Z,81.60
2022-07-27T19:23:14.820Z,81.60
2022-07-27T19:25:43.489Z,82.00
2022-07-27T19:28:11.695Z,82.00
2022-07-27T19:30:39.900Z,82.30
2022-07-27T19:33:44.585Z,82.70
2022-07-27T19:36:14.065Z,83.10
2022-07-27T19:38:42.039Z,83.20
2022-07-27T19:41:28.469Z,83.60
2022-07-27T19:43:56.474Z,83.60
2022-07-27T19:50:25.096Z,84.10
2022-07-27T19:52:54.598Z,84.50
2022-07-27T19:55:22.685Z,84.70
2022-07-27T19:57:50.701Z,85.00
2022-07-27T20:03:54.511Z,85.10
2022-07-27T20:06:23.525Z,85.40
2022-07-27T20:08:56.044Z,85.50
2022-07-27T20:11:24.142Z,85.70
2022-07-27T20:13:52.241Z,86.00
2022-07-27T20:16:20.220Z,86.10
2022-07-27T20:18:48.176Z,86.30
2022-07-27T20:21:22.705Z,86.50
2022-07-27T20:24:02.193Z,86.70
2022-07-27T20:26:31.639Z,86.80
2022-07-27T20:29:00.468Z,86.80
2022-07-27T20:31:28.486Z,87.00
2022-07-27T20:33:56.397Z,87.10
2022-07-27T20:36:24.281Z,87.20
2022-07-27T20:38:53.499Z,87.20
2022-07-27T20:41:21.430Z,87.40
2022-07-27T20:44:00.526Z,87.50
2022-07-27T20:46:28.426Z,87.60
2022-07-27T20:49:02.478Z,87.70
2022-07-27T20:51:30.861Z,87.90
2022-07-27T20:54:00.200Z,88.00
2022-07-27T20:56:28.018Z,88.20
2022-07-27T20:58:56.432Z,88.30
2022-07-27T21:01:24.384Z,88.50
2022-07-27T21:07:19.934Z,88.60
2022-07-27T21:10:04.480Z,88.80
2022-07-27T21:13:27.895Z,88.90
2022-07-27T21:15:34.005Z,89.00
2022-07-27T21:18:05.861Z,89.40
2022-07-27T21:20:43.077Z,89.50
2022-07-27T21:23:28.528Z,89.50
2022-07-27T21:25:58.021Z,89.50
2022-07-27T21:28:26.362Z,89.70
2022-07-27T21:30:54.200Z,89.80
2022-07-27T21:33:22.068Z,89.60
2022-07-27T21:35:50.079Z,90.00
2022-07-27T21:38:17.915Z,90.00
2022-07-27T21:40:46.694Z,90.00
2022-07-27T21:43:15.891Z,90.10
2022-07-27T21:45:48.355Z,90.50
2022-07-27T21:48:17.611Z,90.20
2022-07-27T21:50:45.555Z,90.20
2022-07-27T21:53:13.402Z,90.20
2022-07-27T21:55:41.419Z,90.20
2022-07-27T21:58:12.112Z,90.20
2022-07-27T22:00:41.430Z,90.40
2022-07-27T22:03:10.133Z,90.40
2022-07-27T22:05:38.022Z,90.60
2022-07-27T22:08:21.262Z,90.60
2022-07-27T22:10:49.234Z,90.60
2022-07-27T22:13:17.141Z,90.60
2022-07-27T22:15:55.776Z,90.60
2022-07-27T22:18:24.122Z,90.70
2022-07-27T22:21:01.255Z,90.80
2022-07-27T22:23:29.319Z,90.80
2022-07-27T22:25:58.105Z,90.80
2022-07-27T22:28:26.394Z,90.90
2022-07-27T22:31:19.739Z,91.00
2022-07-27T22:33:47.419Z,91.00
2022-07-27T22:36:15.513Z,91.10
2022-07-27T22:38:43.638Z,91.00
2022-07-27T22:41:29.058Z,91.00
2022-07-27T22:44:07.309Z,90.90
2022-07-27T22:46:36.680Z,91.00
2022-07-27T22:49:11.117Z,91.00
2022-07-27T22:51:49.398Z,91.10
2022-07-27T22:54:24.747Z,91.20
2022-07-27T22:56:57.342Z,91.20
2022-07-27T22:59:26.427Z,91.20
2022-07-27T23:01:55.680Z,91.30
2022-07-27T23:04:23.710Z,91.30
2022-07-27T23:06:51.669Z,91.30
2022-07-27T23:09:25.096Z,91.30
2022-07-27T23:11:53.555Z,91.30
2022-07-27T23:14:25.831Z,91.40
2022-07-27T23:16:55.499Z,91.40
2022-07-27T23:19:41.898Z,91.60
2022-07-27T23:22:11.377Z,91.60
2022-07-27T23:24:40.163Z,91.60
2022-07-27T23:27:31.379Z,91.70
2022-07-27T23:30:10.649Z,91.70
2022-07-27T23:32:39.953Z,91.60
2022-07-27T23:35:26.410Z,91.70
2022-07-27T23:37:54.307Z,91.70
2022-07-27T23:40:41.220Z,91.70
2022-07-27T23:43:12.336Z,91.70
2022-07-27T23:45:40.210Z,91.70
2022-07-27T23:48:09.499Z,91.70
2022-07-27T23:50:38.046Z,91.80
2022-07-27T23:53:15.564Z,91.70
2022-07-27T23:55:43.629Z,91.90
2022-07-27T23:58:11.975Z,91.80
